This is the latest recevied weather packets stored in our database for station/object OK4PZ-5. If no packets are shown the sender has not sent any weather packets the latest 10 day(s).
| Time | Temp. | Humidity | Pressure | Rain* | Wind** | Luminosity | Snow |
|---|---|---|---|---|---|---|---|
| 1777621502 | 12.78° C | 47% | 1030 hPa | 0 mm | - | - | - |
| 1777620602 | 13.33° C | 45% | 1030 hPa | 0 mm | - | - | - |
| 1777619702 | 12.22° C | 48% | 1030 hPa | 0 mm | - | - | - |
| 1777618802 | 11.11° C | 51% | 1030 hPa | 0 mm | - | - | - |
| 1777617902 | 10° C | 56% | 1030 hPa | 0 mm | - | - | - |
| 1777617003 | 8.89° C | 60% | 1030 hPa | 0 mm | - | - | - |
| 1777616102 | 8.33° C | 62% | 1030 hPa | 0 mm | - | - | - |
| 1777615202 | 6.67° C | 68% | 1030 hPa | 0 mm | - | - | - |
| 1777614302 | 5.56° C | 71% | 1030 hPa | 0 mm | - | - | - |
| 1777613403 | 2.78° C | 79% | 1030 hPa | 0 mm | - | - | - |
| 1777612502 | 2.22° C | 82% | 1030 hPa | 0 mm | - | - | - |
| 1777611602 | 1.67° C | 84% | 1030 hPa | 0 mm | - | - | - |
| 1777610702 | 1.11° C | 86% | 1030 hPa | 0 mm | - | - | - |
| 1777609802 | 0.56° C | 86% | 1030 hPa | 0 mm | - | - | - |
| 1777608902 | 0° C | 89% | 1030 hPa | 0 mm | - | - | - |
| 1777608002 | -1.11° C | 91% | 1030 hPa | 0 mm | - | - | - |
| 1777607103 | -1.11° C | 92% | 1030 hPa | 0 mm | - | - | - |
| 1777606202 | -1.11° C | 91% | 1030 hPa | 0 mm | - | - | - |
| 1777605302 | -1.11° C | 93% | 1030 hPa | 0 mm | - | - | - |
| 1777604402 | -0.56° C | 92% | 1030 hPa | 0 mm | - | - | - |
| 1777603502 | -0.56° C | 90% | 1030 hPa | 0 mm | - | - | - |
| 1777602603 | -0.56° C | 90% | 1030 hPa | 0 mm | - | - | - |
| 1777601702 | -0.56° C | 90% | 1030 hPa | 0 mm | - | - | - |
| 1777599903 | -0.56° C | 91% | 1030 hPa | 0 mm | - | - | - |
| 1777599003 | 0° C | 90% | 1030 hPa | 0 mm | - | - | - |
* Rain latest hour (hover to see other rain measurements)
** Current wind speed in m/s (hover to see current wind gust speed)